Terminal Aerodrome Forecast
Issued by NWS Twin Cities, MN

Home | Current Version | Previous Version | Text Only | Print | Product List | Glossary Off
Versions: 1 2 3 4 5 6 7 8 9 10 11 12 13

000
FTUS43 KMPX 251720
TAFEAU
TAF
KEAU 251720Z 2518/2618 26012KT P6SM BKN250
     FM260100 28006KT P6SM BKN250
     FM261000 VRB02KT 2SM BR SKC
     FM261300 VRB03KT P6SM SCT250=

USA.gov is the U.S. government's official web portal to all federal, state and local government web resources and services.